Date,TemperatureHighF,TemperatureAvgF,TemperatureLowF,DewpointHighF,DewpointAvgF,DewpointLowF,HumidityHigh,HumidityAvg,HumidityLow,PressureMaxIn,PressureMinIn,WindSpeedMaxMPH,WindSpeedAvgMPH,GustSpeedMaxMPH,PrecipitationSumIn
2013-2-1,46.5,42.1,37.4,42.7,39.7,36.2,97,91,80,29.85,29.45,7,1,7,0.25
2013-2-2,41.9,38.2,28.6,38.2,32.1,25.5,95,79,64,30.25,29.60,10,3,10,0.00
2013-2-3,49.2,40.5,28.1,46.5,37.7,25.8,94,89,83,30.26,29.90,8,1,8,0.00
2013-2-4,50.9,48.0,42.6,47.3,40.7,35.6,92,76,57,29.94,29.71,14,4,14,0.00
2013-2-5,43.4,40.2,35.6,39.5,33.3,27.7,93,77,55,29.72,29.33,18,5,18,0.13
2013-2-6,43.7,40.2,35.3,39.4,34.2,28.3,93,79,67,30.06,29.36,24,5,24,0.04
2013-2-7,42.4,37.0,32.7,36.3,31.5,26.8,96,81,66,30.11,29.99,9,2,9,0.02
2013-2-8,43.2,37.1,30.8,37.0,33.2,29.4,97,86,67,30.15,30.03,7,1,7,0.01
2013-2-9,39.2,37.0,33.6,37.0,34.7,31.3,96,92,84,30.16,29.86,9,0,9,0.03
2013-2-10,41.4,38.2,33.0,40.1,37.1,32.2,98,96,94,29.86,29.26,8,2,8,0.48
2013-2-11,35.3,34.0,32.9,34.5,33.2,32.2,98,97,95,29.78,29.28,7,2,7,0.22
2013-2-12,36.5,34.8,33.5,33.4,30.6,28.1,96,85,77,30.14,29.77,7,2,7,0.00
2013-2-13,40.2,35.3,33.2,38.5,30.4,24.9,95,82,66,30.20,29.97,8,2,8,0.01
2013-2-14,52.7,46.1,40.0,47.3,42.2,36.1,98,87,67,29.98,29.73,12,3,12,0.06
2013-2-15,51.5,41.1,32.9,41.4,36.6,31.6,98,85,58,30.20,29.98,7,1,7,0.00
2013-2-16,50.9,42.7,34.1,40.6,37.0,32.3,96,82,56,30.24,30.19,4,0,4,0.00
2013-2-17,50.2,38.6,28.2,41.2,34.2,27.5,99,86,52,30.20,30.09,9,1,9,0.00
2013-2-18,48.2,38.0,30.5,38.6,34.1,29.1,99,87,60,30.14,30.09,7,1,7,0.01
2013-2-19,48.9,35.2,25.6,39.1,31.4,24.9,99,87,59,30.13,30.05,2,0,2,0.00
2013-2-20,41.9,37.5,33.7,38.4,32.8,28.1,98,84,66,30.25,30.10,13,3,13,0.02
2013-2-21,36.8,34.6,32.9,28.5,24.7,21.9,74,67,59,30.26,30.16,14,4,14,0.00
2013-2-22,36.0,33.9,32.5,26.9,24.4,22.1,76,68,62,30.16,30.09,12,4,12,0.00
2013-2-23,36.7,33.9,32.3,29.7,26.6,23.5,86,75,62,30.21,30.08,12,3,12,0.00
2013-2-24,36.4,34.6,32.7,29.8,28.6,27.1,87,79,72,30.27,30.19,10,3,10,0.00
2013-2-25,40.0,37.7,34.6,36.2,34.1,29.4,91,86,80,30.38,30.25,13,4,13,0.00
2013-2-26,40.8,39.0,36.6,39.0,37.4,35.0,96,94,90,30.56,30.37,10,3,10,0.02
2013-2-27,43.0,38.6,35.9,37.0,34.8,33.2,95,86,73,30.56,30.48,12,4,12,0.00
2013-2-28,46.9,39.6,34.6,38.8,35.2,32.0,92,84,72,30.48,30.33,8,2,8,0.00